createdAt,value
2018-03-29T00:02:45.038Z,94.00
2018-03-29T00:07:39.562Z,93.60
2018-03-29T00:12:33.941Z,93.90
2018-03-29T00:17:28.344Z,94.20
2018-03-29T00:22:22.692Z,93.80
2018-03-29T00:27:17.030Z,93.60
2018-03-29T00:32:12.198Z,94.40
2018-03-29T00:37:06.565Z,94.20
2018-03-29T00:42:01.691Z,93.70
2018-03-29T00:46:56.122Z,93.70
2018-03-29T00:51:50.507Z,93.60
2018-03-29T00:56:44.847Z,93.50
2018-03-29T01:01:39.209Z,94.10
2018-03-29T01:06:33.588Z,93.90
2018-03-29T01:11:28.688Z,93.60
2018-03-29T01:16:24.320Z,93.90
2018-03-29T01:21:18.477Z,93.90
2018-03-29T01:26:12.882Z,93.80
2018-03-29T01:31:07.206Z,93.50
2018-03-29T01:36:01.558Z,93.40
2018-03-29T01:40:55.884Z,93.20
2018-03-29T01:45:50.260Z,93.00
2018-03-29T01:50:45.380Z,92.80
2018-03-29T01:55:39.751Z,92.80
2018-03-29T02:00:34.091Z,92.90
2018-03-29T02:05:28.626Z,93.00
2018-03-29T02:10:22.986Z,93.00
2018-03-29T02:15:18.154Z,93.00
2018-03-29T02:20:12.521Z,92.90
2018-03-29T02:25:07.569Z,92.90
2018-03-29T02:30:02.127Z,92.80
2018-03-29T02:34:56.899Z,92.50
2018-03-29T02:39:51.279Z,92.20
2018-03-29T02:44:46.664Z,91.90
2018-03-29T02:49:41.970Z,92.00
2018-03-29T02:54:36.647Z,91.70
2018-03-29T02:59:31.026Z,91.50
2018-03-29T03:04:25.420Z,91.30
2018-03-29T03:09:20.641Z,91.20
2018-03-29T03:14:15.780Z,90.90
2018-03-29T03:19:10.141Z,90.90
2018-03-29T03:24:04.254Z,90.70
2018-03-29T03:28:59.620Z,90.30
2018-03-29T03:33:53.964Z,90.30
2018-03-29T03:38:48.351Z,90.60
2018-03-29T03:43:42.700Z,90.70
2018-03-29T03:48:37.076Z,90.70
2018-03-29T03:53:32.262Z,90.70
2018-03-29T03:58:27.539Z,90.80
2018-03-29T04:03:22.795Z,90.80
2018-03-29T04:08:17.153Z,90.70
2018-03-29T04:13:12.280Z,90.60
2018-03-29T04:18:07.526Z,90.40
2018-03-29T04:23:02.068Z,90.40
2018-03-29T04:27:56.424Z,90.40
2018-03-29T04:32:50.877Z,90.40
2018-03-29T04:37:45.218Z,90.40
2018-03-29T04:42:40.352Z,90.30
2018-03-29T04:47:35.018Z,90.30
2018-03-29T04:52:29.369Z,90.20
2018-03-29T04:57:23.733Z,90.10
2018-03-29T05:02:18.089Z,90.10
2018-03-29T05:07:12.466Z,90.70
2018-03-29T05:12:06.828Z,90.60
2018-03-29T05:17:01.315Z,90.70
2018-03-29T05:21:55.649Z,90.90
2018-03-29T05:26:50.617Z,90.80
2018-03-29T05:31:44.984Z,90.70
2018-03-29T05:36:40.124Z,90.70
2018-03-29T05:41:35.421Z,90.50
2018-03-29T05:46:30.550Z,90.40
2018-03-29T05:51:25.712Z,90.30
2018-03-29T05:56:20.094Z,90.30
2018-03-29T06:01:15.232Z,89.90
2018-03-29T06:06:09.605Z,89.90
2018-03-29T06:11:04.064Z,89.40
2018-03-29T06:16:04.244Z,89.10
2018-03-29T06:20:59.437Z,87.40
2018-03-29T06:25:53.829Z,87.40
2018-03-29T06:30:49.185Z,85.80
2018-03-29T06:35:44.307Z,85.20
2018-03-29T06:40:39.452Z,84.80
2018-03-29T06:45:33.868Z,84.80
2018-03-29T06:50:28.247Z,88.60
2018-03-29T06:55:22.615Z,83.90
2018-03-29T07:00:17.013Z,83.90
2018-03-29T07:05:13.117Z,82.70
2018-03-29T07:10:07.470Z,81.80
2018-03-29T07:15:02.654Z,81.20
2018-03-29T07:19:57.306Z,81.20
2018-03-29T07:24:52.446Z,80.70
2018-03-29T07:29:46.998Z,80.70
2018-03-29T07:34:41.354Z,79.30
2018-03-29T07:39:35.782Z,78.60
2018-03-29T07:44:30.308Z,78.70
2018-03-29T07:49:24.822Z,79.00
2018-03-29T07:54:19.554Z,77.70
2018-03-29T07:59:13.947Z,77.70
2018-03-29T08:04:08.390Z,77.90
2018-03-29T08:09:02.750Z,77.80
2018-03-29T08:13:57.116Z,77.30
2018-03-29T08:18:51.457Z,76.30
2018-03-29T08:23:45.830Z,75.90
2018-03-29T08:28:40.175Z,75.80
2018-03-29T08:33:35.317Z,75.90
2018-03-29T08:38:30.451Z,75.40
2018-03-29T08:43:24.986Z,75.20
2018-03-29T08:48:19.478Z,75.80
2018-03-29T08:53:13.839Z,71.80
2018-03-29T08:58:08.940Z,66.60
2018-03-29T09:03:03.310Z,66.50
2018-03-29T09:07:58.050Z,64.40
2018-03-29T09:12:52.727Z,58.10
2018-03-29T09:17:47.095Z,57.60
2018-03-29T09:22:42.376Z,58.10
2018-03-29T09:27:36.727Z,58.00
2018-03-29T09:32:31.184Z,59.40
2018-03-29T09:37:25.582Z,61.20
2018-03-29T09:42:20.242Z,61.00
2018-03-29T09:47:14.640Z,61.70
2018-03-29T09:52:09.760Z,59.00
2018-03-29T09:57:04.127Z,59.00
2018-03-29T10:01:58.110Z,55.20
2018-03-29T10:07:05.289Z,52.50
2018-03-29T10:11:59.642Z,49.60
2018-03-29T10:16:54.830Z,45.70
2018-03-29T10:21:49.257Z,45.70
2018-03-29T10:26:43.900Z,48.00
2018-03-29T10:31:38.355Z,49.50
2018-03-29T10:36:32.764Z,51.90
2018-03-29T10:41:27.131Z,53.40
2018-03-29T10:46:21.535Z,55.00
2018-03-29T10:51:15.964Z,56.40
2018-03-29T10:56:10.350Z,57.20
2018-03-29T11:01:04.745Z,57.80
2018-03-29T11:06:00.032Z,56.90
2018-03-29T11:10:55.432Z,56.10
2018-03-29T11:15:49.779Z,56.10
2018-03-29T11:20:45.067Z,53.20
2018-03-29T11:25:39.641Z,53.20
2018-03-29T11:30:33.979Z,53.50
2018-03-29T11:35:28.345Z,50.30
2018-03-29T11:40:22.744Z,52.10
2018-03-29T11:45:17.162Z,48.50
2018-03-29T11:50:11.577Z,45.90
2018-03-29T11:55:06.114Z,46.90
2018-03-29T12:00:01.430Z,47.30
2018-03-29T12:04:55.801Z,47.30
2018-03-29T12:09:50.418Z,45.20
2018-03-29T12:14:44.798Z,46.60
2018-03-29T12:19:39.211Z,46.40
2018-03-29T12:24:33.568Z,44.70
2018-03-29T12:29:28.664Z,45.10
2018-03-29T12:34:23.044Z,45.10
2018-03-29T12:39:17.530Z,48.70
2018-03-29T12:44:11.954Z,51.80
2018-03-29T12:49:06.431Z,54.30
2018-03-29T12:54:01.229Z,57.50
2018-03-29T12:58:55.604Z,58.60
2018-03-29T13:03:49.987Z,59.30
2018-03-29T13:08:45.459Z,59.20
2018-03-29T13:13:40.752Z,58.50
2018-03-29T13:18:36.607Z,58.70
2018-03-29T13:23:31.712Z,59.30
2018-03-29T13:28:26.075Z,59.30
2018-03-29T13:33:20.610Z,58.90
2018-03-29T13:38:15.105Z,58.70
2018-03-29T13:43:09.526Z,57.60
2018-03-29T13:48:05.020Z,57.70
2018-03-29T13:52:59.395Z,57.60
2018-03-29T13:57:53.495Z,57.10
2018-03-29T14:02:47.875Z,57.30
2018-03-29T14:07:43.446Z,54.00
2018-03-29T14:12:37.780Z,54.00
2018-03-29T14:17:32.147Z,52.40
2018-03-29T14:22:26.516Z,52.20
2018-03-29T14:27:21.630Z,51.30
2018-03-29T14:32:16.191Z,51.30
2018-03-29T14:37:10.546Z,50.80
2018-03-29T14:42:05.683Z,50.00
2018-03-29T14:47:01.127Z,49.40
2018-03-29T14:51:55.754Z,49.30
2018-03-29T14:56:50.100Z,48.70
2018-03-29T15:01:44.645Z,49.00
2018-03-29T15:06:39.044Z,48.60
2018-03-29T15:11:33.409Z,48.50
2018-03-29T15:16:28.819Z,49.50
2018-03-29T15:21:23.267Z,49.50
2018-03-29T15:26:17.608Z,50.00
2018-03-29T15:31:12.010Z,50.00
2018-03-29T15:36:06.362Z,49.80
2018-03-29T15:41:00.751Z,48.80
2018-03-29T15:45:55.882Z,46.60
2018-03-29T15:50:51.059Z,46.30
2018-03-29T15:55:45.683Z,46.90
2018-03-29T16:00:40.047Z,46.40
2018-03-29T16:05:34.419Z,47.00
2018-03-29T16:10:28.880Z,47.80
2018-03-29T16:15:23.353Z,46.20
2018-03-29T16:20:17.720Z,45.70
2018-03-29T16:25:12.914Z,46.00
2018-03-29T16:30:07.401Z,46.00
2018-03-29T16:35:01.759Z,46.40
2018-03-29T16:39:56.096Z,46.40
2018-03-29T16:44:50.455Z,46.10
2018-03-29T16:49:45.578Z,45.70
2018-03-29T16:54:40.139Z,45.70
2018-03-29T16:59:34.608Z,45.40
2018-03-29T17:04:28.974Z,46.20
2018-03-29T17:09:23.762Z,46.90
2018-03-29T17:14:18.111Z,47.50
2018-03-29T17:19:12.512Z,48.10
2018-03-29T17:24:07.352Z,48.30
2018-03-29T17:29:01.915Z,49.30
2018-03-29T17:33:56.844Z,49.90
2018-03-29T17:38:51.961Z,51.20
2018-03-29T17:43:47.091Z,51.60
2018-03-29T17:48:41.529Z,51.50
2018-03-29T17:53:35.924Z,52.40
2018-03-29T17:58:30.363Z,53.20
2018-03-29T18:03:25.183Z,53.90
2018-03-29T18:08:19.562Z,54.60
2018-03-29T18:13:14.309Z,55.10
2018-03-29T18:18:09.446Z,56.80
2018-03-29T18:23:04.698Z,57.70
2018-03-29T18:27:59.463Z,57.70
2018-03-29T18:32:54.608Z,59.60
2018-03-29T18:37:49.158Z,59.60
2018-03-29T18:42:43.513Z,62.60
2018-03-29T18:47:38.859Z,65.40
2018-03-29T18:52:33.560Z,65.40
2018-03-29T18:57:27.918Z,66.90
2018-03-29T19:02:22.279Z,66.50
2018-03-29T19:07:16.626Z,67.60
2018-03-29T19:12:11.130Z,68.60
2018-03-29T19:17:06.006Z,69.20
2018-03-29T19:22:00.333Z,70.30
2018-03-29T19:26:54.668Z,70.20
2018-03-29T19:31:49.858Z,71.00
2018-03-29T19:36:44.340Z,71.10
2018-03-29T19:41:38.758Z,70.90
2018-03-29T19:46:33.227Z,71.90
2018-03-29T19:51:27.713Z,72.20
2018-03-29T19:56:22.892Z,74.00
2018-03-29T20:01:17.455Z,74.00
2018-03-29T20:06:11.591Z,74.40
2018-03-29T20:11:05.689Z,74.00
2018-03-29T20:16:00.063Z,74.40
2018-03-29T20:20:54.404Z,75.10
2018-03-29T20:25:48.954Z,76.10
2018-03-29T20:30:43.319Z,76.30
2018-03-29T20:35:37.746Z,76.70
2018-03-29T20:40:32.996Z,77.90
2018-03-29T20:45:28.661Z,78.50
2018-03-29T20:50:23.044Z,78.60
2018-03-29T20:55:17.844Z,79.30
2018-03-29T21:00:12.440Z,79.10
2018-03-29T21:05:06.788Z,79.30
2018-03-29T21:10:01.214Z,79.70
2018-03-29T21:14:56.461Z,80.80
2018-03-29T21:19:51.574Z,81.20
2018-03-29T21:24:46.774Z,81.50
2018-03-29T21:29:41.228Z,81.50
2018-03-29T21:34:35.595Z,82.50
2018-03-29T21:39:30.718Z,83.10
2018-03-29T21:44:25.878Z,83.40
2018-03-29T21:49:21.138Z,83.10
2018-03-29T21:54:15.549Z,83.10
2018-03-29T21:59:09.922Z,83.20
2018-03-29T22:04:04.386Z,82.40
2018-03-29T22:08:58.737Z,82.30
2018-03-29T22:13:53.571Z,82.10
2018-03-29T22:18:47.908Z,82.40
2018-03-29T22:23:42.357Z,82.10
2018-03-29T22:28:36.796Z,82.50
2018-03-29T22:33:32.329Z,82.30
2018-03-29T22:38:26.980Z,82.20
2018-03-29T22:43:21.510Z,82.60
2018-03-29T22:48:15.786Z,82.30
2018-03-29T22:53:10.168Z,82.50
2018-03-29T22:58:04.514Z,82.50
2018-03-29T23:02:58.982Z,82.40
2018-03-29T23:07:53.734Z,82.20
2018-03-29T23:12:48.927Z,82.70
2018-03-29T23:17:44.174Z,82.40
2018-03-29T23:22:39.751Z,82.40
2018-03-29T23:27:35.340Z,82.30
2018-03-29T23:32:30.960Z,82.00
2018-03-29T23:37:26.867Z,82.00
2018-03-29T23:42:21.763Z,81.80
2018-03-29T23:47:17.938Z,82.10
2018-03-29T23:52:13.655Z,81.70
2018-03-29T23:57:08.469Z,81.50
